CST8 weather

Montreal / Marina Venise Seaplane Base
Montréal, Quebec, Canada

Public forecast

Using degrees Celsius for public forecast. Weather courtesy of forecast.io.

Closest aviation weather report (METAR) to Montreal / Marina Venise Seaplane Base

Closest report is Montreal / Pierre Elliott Trudeau International Airport, 9.9 nm (18.3 km) S. Retrieved 2019/12/10 21:00 UTC (22 minutes ago):

CYUL 102100Z 27017G26KT 30SM FEW025 FEW080 BKN250 01/M06 A2979 RMK CU1AC1CI7 CU TR AC TR PRESRR SLP092

Closest aviation forecast (TAF) to Montreal / Marina Venise Seaplane Base

Closest forecast is Montreal / Pierre Elliott Trudeau International Airport, 9.9 nm (18.3 km) S. Retrieved 2019/12/10 21:45 UTC (0 seconds ago):

TAF TAF CYUL 102041Z 1021/1118 27015G25KT P6SM SCT030 TEMPO 1021/1023 P6SM -SHSN BKN030 FM102300 29012G22KT P6SM SCT030 BECMG 1101/1103 31010KT BECMG 1109/1111 VRB03KT FM111700 14008KT P6SM BKN030 RMK NXT FCST BY 110000Z